createdAt,value
2022-10-09T00:01:33.245Z,54.14
2022-10-09T00:04:00.384Z,54.00
2022-10-09T00:06:27.539Z,53.86
2022-10-09T00:08:54.593Z,54.05
2022-10-09T00:11:21.995Z,54.04
2022-10-09T00:13:49.054Z,53.77
2022-10-09T00:16:16.187Z,54.04
2022-10-09T00:18:43.357Z,53.91
2022-10-09T00:21:10.463Z,54.03
2022-10-09T00:23:37.528Z,53.77
2022-10-09T00:26:04.622Z,53.83
2022-10-09T00:28:35.298Z,53.73
2022-10-09T00:31:04.985Z,53.69
2022-10-09T00:33:32.110Z,53.60
2022-10-09T00:35:59.183Z,53.67
2022-10-09T00:38:26.292Z,53.58
2022-10-09T00:40:53.351Z,53.75
2022-10-09T00:43:20.409Z,53.48
2022-10-09T00:45:47.505Z,53.51
2022-10-09T00:48:14.639Z,53.66
2022-10-09T00:50:41.764Z,53.41
2022-10-09T00:53:08.824Z,53.38
2022-10-09T00:55:35.914Z,53.56
2022-10-09T00:58:02.967Z,53.43
2022-10-09T01:00:30.031Z,53.52
2022-10-09T01:02:57.122Z,53.31
2022-10-09T01:05:24.203Z,53.43
2022-10-09T01:07:51.262Z,53.18
2022-10-09T01:10:18.373Z,53.40
2022-10-09T01:12:45.623Z,53.44
2022-10-09T01:15:12.831Z,53.26
2022-10-09T01:17:39.909Z,53.33
2022-10-09T01:20:07.012Z,53.29
2022-10-09T01:22:34.102Z,53.24
2022-10-09T01:25:01.166Z,53.23
2022-10-09T01:27:28.251Z,53.33
2022-10-09T01:29:55.313Z,53.16
2022-10-09T01:32:22.980Z,53.05
2022-10-09T01:34:50.053Z,53.20
2022-10-09T01:37:17.170Z,53.01
2022-10-09T01:39:44.267Z,53.12
2022-10-09T01:42:11.322Z,53.08
2022-10-09T01:44:38.386Z,52.89
2022-10-09T01:47:05.447Z,53.04
2022-10-09T01:49:32.718Z,52.76
2022-10-09T01:51:59.776Z,52.87
2022-10-09T01:54:26.855Z,52.66
2022-10-09T01:56:53.915Z,52.96
2022-10-09T01:59:21.047Z,52.64
2022-10-09T02:01:48.211Z,52.68
2022-10-09T02:04:15.365Z,52.99
2022-10-09T02:06:42.521Z,52.87
2022-10-09T02:09:09.667Z,52.80
2022-10-09T02:11:36.734Z,52.63
2022-10-09T02:14:03.826Z,52.61
2022-10-09T02:16:36.110Z,52.76
2022-10-09T02:19:04.206Z,52.81
2022-10-09T02:21:31.284Z,52.71
2022-10-09T02:23:58.355Z,52.66
2022-10-09T02:26:25.420Z,52.72
2022-10-09T02:28:52.690Z,52.38
2022-10-09T02:31:19.831Z,52.45
2022-10-09T02:33:47.029Z,52.52
2022-10-09T02:36:14.780Z,52.34
2022-10-09T02:38:41.846Z,52.55
2022-10-09T02:41:08.993Z,52.45
2022-10-09T02:43:36.060Z,52.47
2022-10-09T02:46:03.217Z,52.33
2022-10-09T02:48:30.304Z,52.26
2022-10-09T02:50:57.458Z,52.08
2022-10-09T02:53:24.520Z,52.15
2022-10-09T02:55:51.594Z,52.05
2022-10-09T02:58:18.670Z,52.04
2022-10-09T03:00:45.739Z,52.08
2022-10-09T03:03:12.817Z,52.15
2022-10-09T03:05:40.120Z,51.76
2022-10-09T03:08:07.240Z,51.68
2022-10-09T03:10:34.354Z,51.92
2022-10-09T03:13:01.441Z,51.61
2022-10-09T03:15:28.690Z,51.51
2022-10-09T03:17:55.775Z,51.73
2022-10-09T03:20:22.840Z,51.49
2022-10-09T03:22:50.126Z,51.62
2022-10-09T03:25:17.420Z,51.67
2022-10-09T03:27:44.522Z,51.52
2022-10-09T03:30:11.635Z,51.38
2022-10-09T03:32:38.702Z,51.25
2022-10-09T03:35:05.758Z,51.25
2022-10-09T03:37:32.827Z,51.16
2022-10-09T03:39:59.917Z,51.19
2022-10-09T03:42:26.978Z,51.17
2022-10-09T03:44:54.060Z,51.16
2022-10-09T03:47:21.174Z,51.01
2022-10-09T03:49:48.362Z,50.95
2022-10-09T03:52:15.472Z,50.85
2022-10-09T03:54:42.544Z,50.85
2022-10-09T03:57:09.605Z,50.92
2022-10-09T03:59:36.678Z,50.83
2022-10-09T04:02:03.795Z,50.95
2022-10-09T04:04:30.875Z,50.97
2022-10-09T04:06:57.951Z,50.56
2022-10-09T04:09:25.044Z,50.57
2022-10-09T04:11:52.112Z,50.55
2022-10-09T04:14:19.197Z,50.74
2022-10-09T04:16:46.354Z,50.54
2022-10-09T04:19:13.626Z,50.44
2022-10-09T04:21:40.701Z,50.64
2022-10-09T04:24:08.707Z,50.65
2022-10-09T04:26:35.779Z,50.30
2022-10-09T04:29:02.894Z,50.44
2022-10-09T04:31:29.997Z,50.40
2022-10-09T04:33:57.151Z,50.42
2022-10-09T04:36:24.300Z,50.53
2022-10-09T04:38:52.663Z,50.34
2022-10-09T04:41:19.731Z,50.21
2022-10-09T04:43:46.881Z,50.15
2022-10-09T04:46:14.024Z,50.43
2022-10-09T04:48:41.177Z,50.21
2022-10-09T04:51:08.302Z,50.27
2022-10-09T04:53:35.409Z,50.19
2022-10-09T04:56:02.838Z,50.18
2022-10-09T04:58:29.915Z,50.14
2022-10-09T05:00:57.027Z,50.28
2022-10-09T05:03:24.115Z,49.97
2022-10-09T05:05:51.193Z,49.97
2022-10-09T05:08:18.280Z,50.02
2022-10-09T05:10:45.392Z,49.85
2022-10-09T05:13:12.531Z,49.97
2022-10-09T05:15:39.628Z,49.78
2022-10-09T05:18:06.693Z,49.75
2022-10-09T05:20:33.779Z,49.58
2022-10-09T05:23:00.966Z,49.80
2022-10-09T05:25:28.069Z,49.82
2022-10-09T05:27:55.151Z,49.36
2022-10-09T05:30:22.209Z,49.53
2022-10-09T05:32:49.500Z,49.63
2022-10-09T05:35:16.817Z,49.64
2022-10-09T05:37:43.883Z,49.38
2022-10-09T05:40:10.988Z,49.41
2022-10-09T05:42:38.065Z,49.50
2022-10-09T05:45:05.134Z,49.53
2022-10-09T05:47:32.203Z,49.50
2022-10-09T05:49:59.278Z,49.53
2022-10-09T05:52:26.343Z,49.24
2022-10-09T05:54:53.430Z,49.47
2022-10-09T05:57:20.587Z,49.34
2022-10-09T05:59:47.655Z,49.43
2022-10-09T06:02:14.830Z,49.15
2022-10-09T06:04:41.967Z,49.18
2022-10-09T06:07:09.030Z,49.16
2022-10-09T06:09:36.099Z,49.21
2022-10-09T06:12:03.165Z,49.07
2022-10-09T06:14:30.234Z,49.17
2022-10-09T06:16:57.337Z,48.84
2022-10-09T06:19:24.442Z,48.91
2022-10-09T06:21:51.924Z,48.87
2022-10-09T06:24:19.037Z,48.91
2022-10-09T06:26:46.165Z,48.82
2022-10-09T06:29:13.290Z,48.91
2022-10-09T06:31:40.547Z,49.04
2022-10-09T06:34:07.662Z,48.88
2022-10-09T06:36:35.688Z,49.05
2022-10-09T06:39:02.792Z,49.09
2022-10-09T06:41:29.893Z,48.81
2022-10-09T06:43:57.003Z,48.63
2022-10-09T06:46:24.151Z,48.92
2022-10-09T06:48:51.286Z,48.69
2022-10-09T06:51:18.519Z,48.86
2022-10-09T06:53:45.607Z,48.88
2022-10-09T06:56:12.680Z,48.88
2022-10-09T06:58:39.863Z,48.77
2022-10-09T07:01:07.071Z,48.69
2022-10-09T07:03:34.178Z,48.73
2022-10-09T07:06:01.287Z,48.81
2022-10-09T07:08:28.635Z,48.68
2022-10-09T07:10:55.787Z,48.74
2022-10-09T07:13:22.904Z,49.02
2022-10-09T07:15:49.998Z,48.71
2022-10-09T07:18:17.449Z,48.88
2022-10-09T07:20:44.519Z,48.93
2022-10-09T07:23:11.593Z,48.79
2022-10-09T07:25:38.718Z,48.83
2022-10-09T07:28:05.863Z,48.56
2022-10-09T07:30:33.059Z,48.67
2022-10-09T07:33:00.179Z,48.85
2022-10-09T07:35:27.256Z,48.68
2022-10-09T07:37:54.334Z,48.92
2022-10-09T07:40:21.483Z,48.60
2022-10-09T07:42:48.805Z,48.66
2022-10-09T07:45:16.012Z,48.70
2022-10-09T07:47:43.103Z,48.76
2022-10-09T07:50:10.181Z,48.82
2022-10-09T07:52:37.248Z,48.84
2022-10-09T07:55:04.331Z,48.90
2022-10-09T07:57:31.394Z,48.97
2022-10-09T07:59:58.468Z,48.96
2022-10-09T08:02:25.572Z,48.70
2022-10-09T08:04:52.679Z,49.03
2022-10-09T08:07:19.740Z,48.98
2022-10-09T08:09:46.854Z,48.90
2022-10-09T08:12:14.475Z,48.63
2022-10-09T08:14:41.848Z,48.66
2022-10-09T08:17:08.930Z,48.77
2022-10-09T08:19:36.079Z,48.88
2022-10-09T08:22:03.697Z,48.78
2022-10-09T08:24:30.894Z,48.85
2022-10-09T08:26:57.966Z,48.87
2022-10-09T08:29:25.043Z,48.78
2022-10-09T08:31:52.345Z,48.81
2022-10-09T08:34:19.446Z,48.92
2022-10-09T08:36:46.699Z,48.62
2022-10-09T08:39:13.777Z,48.52
2022-10-09T08:41:42.037Z,48.45
2022-10-09T08:44:10.047Z,48.74
2022-10-09T08:46:37.234Z,48.47
2022-10-09T08:49:04.425Z,48.63
2022-10-09T08:51:31.493Z,48.82
2022-10-09T08:53:58.596Z,48.90
2022-10-09T08:56:25.715Z,48.78
2022-10-09T08:58:52.773Z,48.78
2022-10-09T09:01:19.930Z,48.66
2022-10-09T09:03:47.126Z,48.74
2022-10-09T09:06:14.202Z,48.85
2022-10-09T09:08:44.135Z,48.69
2022-10-09T09:11:11.270Z,48.70
2022-10-09T09:13:38.382Z,48.75
2022-10-09T09:16:05.545Z,49.01
2022-10-09T09:18:32.684Z,48.83
2022-10-09T09:20:59.768Z,48.96
2022-10-09T09:23:27.638Z,48.83
2022-10-09T09:25:54.774Z,48.92
2022-10-09T09:28:21.937Z,49.09
2022-10-09T09:30:49.059Z,49.11
2022-10-09T09:33:16.516Z,48.92
2022-10-09T09:35:46.954Z,49.19
2022-10-09T09:38:14.099Z,49.13
2022-10-09T09:40:45.905Z,49.22
2022-10-09T09:43:14.048Z,49.05
2022-10-09T09:45:41.129Z,49.06
2022-10-09T09:48:08.191Z,49.15
2022-10-09T09:50:48.473Z,49.17
2022-10-09T09:53:19.908Z,49.09
2022-10-09T09:55:46.987Z,49.19
2022-10-09T09:58:14.120Z,49.14
2022-10-09T10:00:41.244Z,49.39
2022-10-09T10:03:08.354Z,49.19
2022-10-09T10:05:35.431Z,49.24
2022-10-09T10:08:02.511Z,49.16
2022-10-09T10:10:29.592Z,49.40
2022-10-09T10:12:56.756Z,49.50
2022-10-09T10:15:23.818Z,49.53
2022-10-09T10:17:50.912Z,49.42
2022-10-09T10:20:18.079Z,49.17
2022-10-09T10:22:45.208Z,49.49
2022-10-09T10:25:14.026Z,49.31
2022-10-09T10:27:43.216Z,49.29
2022-10-09T10:30:10.335Z,49.25
2022-10-09T10:32:37.446Z,49.47
2022-10-09T10:35:04.527Z,49.25
2022-10-09T10:37:31.695Z,49.52
2022-10-09T10:39:58.800Z,49.28
2022-10-09T10:42:25.913Z,49.46
2022-10-09T10:44:53.143Z,49.33
2022-10-09T10:47:20.290Z,49.47
2022-10-09T10:49:47.439Z,49.49
2022-10-09T10:52:14.517Z,49.32
2022-10-09T10:54:41.644Z,49.47
2022-10-09T10:57:09.138Z,49.41
2022-10-09T10:59:36.569Z,49.43
2022-10-09T11:02:03.746Z,49.52
2022-10-09T11:04:30.943Z,49.34
2022-10-09T11:06:58.000Z,49.49
2022-10-09T11:09:25.107Z,49.46
2022-10-09T11:11:52.200Z,49.33
2022-10-09T11:14:20.537Z,49.23
2022-10-09T11:16:50.127Z,49.21
2022-10-09T11:19:17.240Z,49.21
2022-10-09T11:21:44.329Z,49.18
2022-10-09T11:24:11.394Z,49.43
2022-10-09T11:26:38.478Z,49.22
2022-10-09T11:29:05.569Z,49.23
2022-10-09T11:31:32.718Z,49.17
2022-10-09T11:33:59.927Z,49.33
2022-10-09T11:36:27.058Z,49.34
2022-10-09T11:38:54.191Z,49.24
2022-10-09T11:41:21.256Z,49.22
2022-10-09T11:43:48.404Z,49.00
2022-10-09T11:46:15.582Z,49.22
2022-10-09T11:48:42.781Z,49.30
2022-10-09T11:51:09.867Z,48.93
2022-10-09T11:53:37.120Z,49.14
2022-10-09T11:56:04.182Z,49.28
2022-10-09T11:58:31.249Z,49.17
2022-10-09T12:00:58.391Z,48.97
2022-10-09T12:03:25.602Z,48.96
2022-10-09T12:05:52.753Z,49.08
2022-10-09T12:08:19.972Z,49.23
2022-10-09T12:10:47.081Z,49.03
2022-10-09T12:13:14.171Z,48.97
2022-10-09T12:15:41.248Z,48.97
2022-10-09T12:18:08.314Z,49.18
2022-10-09T12:20:35.387Z,48.95
2022-10-09T12:23:25.187Z,49.05
2022-10-09T12:25:49.581Z,48.97
2022-10-09T12:28:16.724Z,49.14
2022-10-09T12:30:47.552Z,49.13
2022-10-09T12:33:14.904Z,48.85
2022-10-09T12:35:42.003Z,48.94
2022-10-09T12:38:09.138Z,48.76
2022-10-09T12:40:36.295Z,48.84
2022-10-09T12:43:03.366Z,48.83
2022-10-09T12:45:30.471Z,48.87
2022-10-09T12:47:57.791Z,49.04
2022-10-09T12:50:25.076Z,48.87
2022-10-09T12:52:52.447Z,49.12
2022-10-09T12:55:19.707Z,48.86
2022-10-09T12:57:46.796Z,49.06
2022-10-09T13:00:14.281Z,48.75
2022-10-09T13:02:41.558Z,48.89
2022-10-09T13:05:08.749Z,49.14
2022-10-09T13:07:35.861Z,48.88
2022-10-09T13:10:02.998Z,48.80
2022-10-09T13:12:30.142Z,48.80
2022-10-09T13:14:57.208Z,49.09
2022-10-09T13:17:25.075Z,49.17
2022-10-09T13:19:52.271Z,49.13
2022-10-09T13:22:19.345Z,49.28
2022-10-09T13:24:46.459Z,48.95
2022-10-09T13:27:19.414Z,48.89
2022-10-09T13:29:46.696Z,48.91
2022-10-09T13:32:13.949Z,49.15
2022-10-09T13:34:41.073Z,49.18
2022-10-09T13:37:08.160Z,48.99
2022-10-09T13:39:35.263Z,49.31
2022-10-09T13:42:02.460Z,48.95
2022-10-09T13:44:29.611Z,48.94
2022-10-09T13:46:56.767Z,49.35
2022-10-09T13:49:24.099Z,49.01
2022-10-09T13:51:51.187Z,49.02
2022-10-09T13:54:18.365Z,49.11
2022-10-09T13:56:45.804Z,49.28
2022-10-09T13:59:12.880Z,49.22
2022-10-09T14:01:40.155Z,49.22
2022-10-09T14:04:07.347Z,49.13
2022-10-09T14:06:34.860Z,49.27
2022-10-09T14:09:01.950Z,49.26
2022-10-09T14:11:29.044Z,49.16
2022-10-09T14:13:58.406Z,49.01
2022-10-09T14:16:25.477Z,49.20
2022-10-09T14:18:52.556Z,49.12
2022-10-09T14:21:19.641Z,49.08
2022-10-09T14:23:46.715Z,49.17
2022-10-09T14:26:13.886Z,49.18
2022-10-09T14:28:41.813Z,49.38
2022-10-09T14:31:08.969Z,49.13
2022-10-09T14:33:36.104Z,49.09
2022-10-09T14:36:03.184Z,49.22
2022-10-09T14:38:30.246Z,49.30
2022-10-09T14:40:57.342Z,49.05
2022-10-09T14:43:25.271Z,49.22
2022-10-09T14:45:52.375Z,49.08
2022-10-09T14:48:19.451Z,49.04
2022-10-09T14:50:46.607Z,48.92
2022-10-09T14:53:13.748Z,49.29
2022-10-09T14:55:40.828Z,49.21
2022-10-09T14:58:07.908Z,49.25
2022-10-09T15:00:34.980Z,49.00
2022-10-09T15:03:02.103Z,49.09
2022-10-09T15:05:29.189Z,49.00
2022-10-09T15:07:56.288Z,49.05
2022-10-09T15:10:23.366Z,49.33
2022-10-09T15:12:50.460Z,49.10
2022-10-09T15:15:17.612Z,49.35
2022-10-09T15:17:44.739Z,49.34
2022-10-09T15:20:11.861Z,49.10
2022-10-09T15:22:39.141Z,49.37
2022-10-09T15:25:06.363Z,49.10
2022-10-09T15:27:33.443Z,49.26
2022-10-09T15:30:00.563Z,49.23
2022-10-09T15:32:27.714Z,49.33
2022-10-09T15:34:54.796Z,49.18
2022-10-09T15:37:21.891Z,49.34
2022-10-09T15:39:48.972Z,49.17
2022-10-09T15:42:16.110Z,49.17
2022-10-09T15:44:43.211Z,49.11
2022-10-09T15:47:11.794Z,49.21
2022-10-09T15:49:43.448Z,49.45
2022-10-09T15:52:10.520Z,49.22
2022-10-09T15:54:37.629Z,49.40
2022-10-09T15:57:05.139Z,49.26
2022-10-09T15:59:33.475Z,49.45
2022-10-09T16:02:00.628Z,49.24
2022-10-09T16:04:28.058Z,49.14
2022-10-09T16:06:55.376Z,49.24
2022-10-09T16:09:22.451Z,49.37
2022-10-09T16:11:49.567Z,49.26
2022-10-09T16:14:16.650Z,49.29
2022-10-09T16:16:43.717Z,49.31
2022-10-09T16:19:10.869Z,49.29
2022-10-09T16:21:38.011Z,49.42
2022-10-09T16:24:05.090Z,49.36
2022-10-09T16:26:32.152Z,49.53
2022-10-09T16:28:59.215Z,49.30
2022-10-09T16:31:26.270Z,49.54
2022-10-09T16:33:53.348Z,49.19
2022-10-09T16:36:20.481Z,49.38
2022-10-09T16:38:47.550Z,49.47
2022-10-09T16:41:14.983Z,49.53
2022-10-09T16:43:42.094Z,49.37
2022-10-09T16:46:09.211Z,49.37
2022-10-09T16:48:36.306Z,49.36
2022-10-09T16:51:03.385Z,49.52
2022-10-09T16:53:30.447Z,49.59
2022-10-09T16:55:57.527Z,49.33
2022-10-09T16:58:24.612Z,49.68
2022-10-09T17:00:51.767Z,49.32
2022-10-09T17:03:18.870Z,49.39
2022-10-09T17:05:45.944Z,49.43
2022-10-09T17:08:13.049Z,49.39
2022-10-09T17:10:40.121Z,49.38
2022-10-09T17:13:07.196Z,49.62
2022-10-09T17:15:34.297Z,49.33
2022-10-09T17:18:01.368Z,49.58
2022-10-09T17:20:28.438Z,49.51
2022-10-09T17:22:55.573Z,49.71
2022-10-09T17:25:22.762Z,49.40
2022-10-09T17:27:49.906Z,49.70
2022-10-09T17:30:17.039Z,49.38
2022-10-09T17:32:44.132Z,49.74
2022-10-09T17:35:11.698Z,49.43
2022-10-09T17:37:38.831Z,49.57
2022-10-09T17:40:05.912Z,49.38
2022-10-09T17:42:33.045Z,49.72
2022-10-09T17:45:00.588Z,49.45
2022-10-09T17:47:27.741Z,49.43
2022-10-09T17:49:55.340Z,49.42
2022-10-09T17:52:22.403Z,49.37
2022-10-09T17:54:49.541Z,49.55
2022-10-09T17:57:16.655Z,49.58
2022-10-09T17:59:43.743Z,49.67
2022-10-09T18:02:10.864Z,49.57
2022-10-09T18:04:37.955Z,49.69
2022-10-09T18:07:05.024Z,49.50
2022-10-09T18:09:32.138Z,49.54
2022-10-09T18:11:59.204Z,49.57
2022-10-09T18:14:26.279Z,49.62
2022-10-09T18:16:53.755Z,49.53
2022-10-09T18:19:21.557Z,49.86
2022-10-09T18:21:48.727Z,49.87
2022-10-09T18:24:15.829Z,49.74
2022-10-09T18:26:42.904Z,49.82
2022-10-09T18:29:09.985Z,49.84
2022-10-09T18:31:38.003Z,49.85
2022-10-09T18:34:05.129Z,49.74
2022-10-09T18:36:33.794Z,49.93
2022-10-09T18:39:01.357Z,49.60
2022-10-09T18:41:28.431Z,49.71
2022-10-09T18:43:55.554Z,49.74
2022-10-09T18:46:22.665Z,49.88
2022-10-09T18:48:49.763Z,49.62
2022-10-09T18:51:17.260Z,49.58
2022-10-09T18:53:44.348Z,49.71
2022-10-09T18:56:11.506Z,49.74
2022-10-09T18:58:38.619Z,49.72
2022-10-09T19:01:07.609Z,49.76
2022-10-09T19:03:36.613Z,49.93
2022-10-09T19:06:03.824Z,49.80
2022-10-09T19:08:30.902Z,49.72
2022-10-09T19:10:58.051Z,49.83
2022-10-09T19:13:25.167Z,49.84
2022-10-09T19:15:52.573Z,49.78
2022-10-09T19:18:19.747Z,49.86
2022-10-09T19:20:46.862Z,49.89
2022-10-09T19:23:15.171Z,50.03
2022-10-09T19:25:42.239Z,49.95
2022-10-09T19:28:09.315Z,50.02
2022-10-09T19:30:36.411Z,50.00
2022-10-09T19:33:03.517Z,49.88
2022-10-09T19:35:31.050Z,49.99
2022-10-09T19:37:58.278Z,49.96
2022-10-09T19:40:26.011Z,50.12
2022-10-09T19:42:53.091Z,49.95
2022-10-09T19:45:20.151Z,49.81
2022-10-09T19:47:51.016Z,50.19
2022-10-09T19:50:20.536Z,49.90
2022-10-09T19:52:47.664Z,49.89
2022-10-09T19:55:14.735Z,50.06
2022-10-09T19:57:41.947Z,49.88
2022-10-09T20:00:09.282Z,50.19
2022-10-09T20:02:36.382Z,49.97
2022-10-09T20:05:03.540Z,49.99
2022-10-09T20:07:30.926Z,50.17
2022-10-09T20:09:58.001Z,49.89
2022-10-09T20:12:25.095Z,50.01
2022-10-09T20:14:52.494Z,50.12
2022-10-09T20:17:20.815Z,49.81
2022-10-09T20:19:47.875Z,50.14
2022-10-09T20:22:15.078Z,50.16
2022-10-09T20:24:42.172Z,49.77
2022-10-09T20:27:09.255Z,49.90
2022-10-09T20:29:36.326Z,50.08
2022-10-09T20:32:03.812Z,50.18
2022-10-09T20:34:31.146Z,49.95
2022-10-09T20:36:58.205Z,50.07
2022-10-09T20:39:25.271Z,50.06
2022-10-09T20:41:52.625Z,49.90
2022-10-09T20:44:19.698Z,50.13
2022-10-09T20:46:46.775Z,50.12
2022-10-09T20:49:13.895Z,50.11
2022-10-09T20:51:41.001Z,50.06
2022-10-09T20:54:08.102Z,50.09
2022-10-09T20:56:35.258Z,49.91
2022-10-09T20:59:02.322Z,49.96
2022-10-09T21:01:29.561Z,49.96
2022-10-09T21:03:56.778Z,49.89
2022-10-09T21:06:23.850Z,49.96
2022-10-09T21:08:50.983Z,49.88
2022-10-09T21:11:18.082Z,49.92
2022-10-09T21:13:45.259Z,49.71
2022-10-09T21:16:12.379Z,50.05
2022-10-09T21:18:39.457Z,49.72
2022-10-09T21:21:06.765Z,50.02
2022-10-09T21:23:33.854Z,49.83
2022-10-09T21:26:01.003Z,49.89
2022-10-09T21:28:28.183Z,49.99
2022-10-09T21:30:55.275Z,49.82
2022-10-09T21:33:22.372Z,49.92
2022-10-09T21:35:49.456Z,50.05
2022-10-09T21:38:16.568Z,49.72
2022-10-09T21:40:43.670Z,50.01
2022-10-09T21:43:10.754Z,49.85
2022-10-09T21:45:37.866Z,49.95
2022-10-09T21:48:04.991Z,50.02
2022-10-09T21:50:36.448Z,49.97
2022-10-09T21:53:03.589Z,49.91
2022-10-09T21:55:30.665Z,49.79
2022-10-09T21:57:57.739Z,49.75
2022-10-09T22:00:24.847Z,49.68
2022-10-09T22:02:52.283Z,49.70
2022-10-09T22:05:19.535Z,49.90
2022-10-09T22:07:46.619Z,49.97
2022-10-09T22:10:13.694Z,49.99
2022-10-09T22:12:40.910Z,49.72
2022-10-09T22:15:08.007Z,49.75
2022-10-09T22:17:35.156Z,50.05
2022-10-09T22:20:02.235Z,49.79
2022-10-09T22:22:29.326Z,49.97
2022-10-09T22:24:56.431Z,49.65
2022-10-09T22:27:23.508Z,50.02
2022-10-09T22:29:50.593Z,49.67
2022-10-09T22:32:17.665Z,49.74
2022-10-09T22:34:44.731Z,49.99
2022-10-09T22:37:11.801Z,50.01
2022-10-09T22:39:38.877Z,49.67
2022-10-09T22:42:05.963Z,49.83
2022-10-09T22:44:33.035Z,49.73
2022-10-09T22:47:00.109Z,49.66
2022-10-09T22:49:27.585Z,50.02
2022-10-09T22:51:54.667Z,49.89
2022-10-09T22:54:22.190Z,49.91
2022-10-09T22:56:49.267Z,49.66
2022-10-09T22:59:16.458Z,49.61
2022-10-09T23:01:43.548Z,49.75
2022-10-09T23:04:10.626Z,49.75
2022-10-09T23:06:37.829Z,49.85
2022-10-09T23:09:04.921Z,49.90
2022-10-09T23:11:31.975Z,49.77
2022-10-09T23:13:59.070Z,49.99
2022-10-09T23:16:26.176Z,49.56
2022-10-09T23:18:53.247Z,49.92
2022-10-09T23:21:20.317Z,49.76
2022-10-09T23:23:47.468Z,50.05
2022-10-09T23:26:14.536Z,49.63
2022-10-09T23:28:41.643Z,49.67
2022-10-09T23:31:08.737Z,50.00
2022-10-09T23:33:35.809Z,49.93
2022-10-09T23:36:02.985Z,49.96
2022-10-09T23:38:30.041Z,50.05
2022-10-09T23:40:57.137Z,49.69
2022-10-09T23:43:24.263Z,49.75
2022-10-09T23:45:51.434Z,49.74
2022-10-09T23:48:18.494Z,49.72
2022-10-09T23:50:45.554Z,49.69
2022-10-09T23:53:12.685Z,49.97
2022-10-09T23:55:39.836Z,49.87
2022-10-09T23:58:06.935Z,50.05
